Norfolk, NE

11:35 AM CDT on September 04, 2015 (GMT -0500)
West Central - Norfolk | | Change Station
CLOSE
Current Station
Personal Weather Station
Location: Norfolk, NE
Elevation: 1640 ft
Nearby Weather Stations

Elev 1640 ft 42.04 °N, 97.45 °W | Updated 10 seconds ago

Partly Cloudy
Partly Cloudy
80.2 °F
Feels Like 83 °F
N
4.8
Wind Variable Wind from South
Gusts 11.5 mph

Today
High -- | Low -- °F
--% Chance of Precip.
Yesterday
High -- | Low -- °F
Precip. -- in
6:58 AM 7:58 PM
Waning Gibbous, 58% visible
Pressure 29.81 in
Visibility 10.0 miles
Clouds Mostly Cloudy 12000 ft
Heat Index 83 °F
Dew Point 68 °F
Humidity 67%
Rainfall 0.14 in
Snow Depth Not available.
UV 3 out of 12
Pollen 7.70 out of 12
Air Quality Not available.
Flu Activity Not available.
METAR KOFK 041556Z AUTO 16013G20KT 10SM BKN120 26/20 A2986 RMK AO2 SLP095 T02560200
Pressure 29.81 in
Visibility 10.0 miles
Clouds Mostly Cloudy 12000 ft
Heat Index 83 °F
Dew Point 68 °F
Humidity 67%
Rainfall 0.14 in
Snow Depth Not available.
UV 3 out of 12
Pollen 7.70 out of 12
Air Quality Not available.
Flu Activity Not available.
METAR KOFK 041556Z AUTO 16013G20KT 10SM BKN120 26/20 A2986 RMK AO2 SLP095 T02560200

10-Day Weather Forecast

×

Almanac

Astronomy

Sep. 04, 2015 Rise Set
Actual Time
Civil Twilight
Nautical Twilight
Astronomical Twilight
Moon
Length of Visible Light
Length of Day
Tomorrow will be .
, % of the Moon is Illuminated

Today's Extremes

State Highs State Lows

Community

WunderPhotos

Upload Photos

1,852,220 photos uploaded!

WunderBlogs® & News

Nearby

Air Quality

  Air Quality AQ Index Pollutant
Not available.

Snow Depth

Station Depth Elevation

Earthquake Activity

City Distance Mag. Time & Date
Minimum magnitude displayed is 2.5.

Coastal Water Temperatures

Place Temperature

Stations

Nearby Weather Stations

Station Location Temp. Windchill Dew Point Humidity Wind Precip. Elev Updated Type